Time;durP1;ratioP1;P1;durP2;ratioP2;P2;SDS_P1;SDS_P2;PMS_P1;PMS_P2;Temp;Humidity;BMP_temperature;BMP_pressure;BME280_temperature;BME280_humidity;BME280_pressure;Samples;Min_cycle;Max_cycle;Signal;HPM_P1;HPM_P2
2023/05/01 00:02:15;;;;;;;4.10;3.80;;;14.30;30.00;;;;;;10444457;28;20711;-71
2023/05/01 00:07:20;;;;;;;4.80;4.03;;;14.20;30.00;;;;;;10447952;28;20604;-70
2023/05/01 00:12:23;;;;;;;4.47;4.07;;;14.10;30.10;;;;;;10441288;28;20716;-70
2023/05/01 00:17:27;;;;;;;4.07;3.77;;;14.00;30.00;;;;;;10447783;28;20232;-70
2023/05/01 00:22:31;;;;;;;3.80;3.50;;;14.00;30.00;;;;;;10438321;28;20226;-70
2023/05/01 00:27:34;;;;;;;3.80;3.50;;;13.90;30.20;;;;;;10437324;28;20615;-70
2023/05/01 00:32:38;;;;;;;3.90;3.60;;;13.80;30.00;;;;;;10438395;28;20233;-71
2023/05/01 00:37:43;;;;;;;3.77;3.47;;;13.70;30.10;;;;;;10433823;28;20256;-70
2023/05/01 00:42:46;;;;;;;4.23;3.30;;;13.70;30.60;;;;;;10442283;28;20709;-70
2023/05/01 00:47:52;;;;;;;3.87;3.47;;;13.60;30.30;;;;;;10441281;28;20316;-71
2023/05/01 00:52:57;;;;;;;3.40;3.10;;;13.50;30.80;;;;;;10430674;28;20280;-70
2023/05/01 00:58:01;;;;;;;3.50;3.30;;;13.30;30.60;;;;;;10448164;28;20225;-70
2023/05/01 01:03:05;;;;;;;3.80;3.50;;;13.30;30.60;;;;;;10435744;28;20228;-71
2023/05/01 01:08:18;;;;;;;3.47;3.20;;;13.20;30.50;;;;;;10434390;28;20237;-70
2023/05/01 01:13:28;;;;;;;3.20;2.90;;;13.20;31.30;;;;;;10437695;28;20216;-70
2023/05/01 01:18:37;;;;;;;3.57;3.33;;;13.10;30.90;;;;;;10438034;28;20225;-70
2023/05/01 01:24:03;;;;;;;3.43;3.23;;;13.10;31.00;;;;;;10447610;28;20817;-71
2023/05/01 01:29:40;;;;;;;2.97;2.77;;;13.10;31.50;;;;;;10430805;28;20213;-71
2023/05/01 01:34:50;;;;;;;3.47;3.13;;;13.10;31.10;;;;;;10433645;28;20233;-69
2023/05/01 01:40:01;;;;;;;3.70;3.30;;;13.00;31.40;;;;;;10440226;28;20592;-70
2023/05/01 01:45:09;;;;;;;3.30;3.10;;;13.00;31.00;;;;;;10440065;28;20221;-70
2023/05/01 01:50:14;;;;;;;3.20;3.00;;;12.90;31.00;;;;;;10435615;28;20220;-70
2023/05/01 01:55:22;;;;;;;3.23;3.03;;;12.90;31.30;;;;;;10444558;28;20261;-70
2023/05/01 02:00:26;;;;;;;3.30;3.00;;;12.90;31.40;;;;;;10434837;28;20237;-70
2023/05/01 02:05:33;;;;;;;2.70;2.50;;;12.90;31.20;;;;;;10442739;28;20730;-69
2023/05/01 02:10:37;;;;;;;2.40;2.27;;;12.90;31.70;;;;;;10438313;28;21150;-70
2023/05/01 02:15:42;;;;;;;2.70;2.50;;;12.90;31.30;;;;;;10435184;28;20232;-70
2023/05/01 02:20:47;;;;;;;2.90;2.60;;;12.80;31.40;;;;;;10442713;28;20225;-70
2023/05/01 02:25:53;;;;;;;2.70;2.50;;;12.80;31.70;;;;;;10432370;28;20237;-70
2023/05/01 02:30:57;;;;;;;3.50;3.20;;;12.80;31.70;;;;;;10447257;28;20236;-70
2023/05/01 02:36:02;;;;;;;3.83;3.00;;;12.80;31.50;;;;;;10443290;28;20221;-70
2023/05/01 02:41:07;;;;;;;2.83;2.63;;;12.80;31.70;;;;;;10438555;28;20228;-70
2023/05/01 02:46:13;;;;;;;3.20;3.00;;;12.80;31.60;;;;;;10444280;28;20225;-70
2023/05/01 02:51:19;;;;;;;3.23;3.03;;;12.80;31.60;;;;;;10434629;28;20920;-70
2023/05/01 02:56:23;;;;;;;3.07;2.87;;;12.80;31.80;;;;;;10438704;28;20666;-70
2023/05/01 03:01:27;;;;;;;3.20;3.00;;;12.80;31.50;;;;;;10448294;28;20222;-69
2023/05/01 03:06:31;;;;;;;3.30;3.00;;;12.70;31.40;;;;;;10447621;28;20225;-70
2023/05/01 03:11:35;;;;;;;3.07;2.87;;;12.60;31.60;;;;;;10445766;28;20597;-70
2023/05/01 03:16:38;;;;;;;3.47;3.27;;;12.60;31.50;;;;;;10438487;28;20675;-70
2023/05/01 03:21:42;;;;;;;3.60;3.30;;;12.60;31.60;;;;;;10436033;28;20224;-70
2023/05/01 03:26:45;;;;;;;3.27;3.07;;;12.50;31.80;;;;;;10443541;28;20235;-72
2023/05/01 03:31:49;;;;;;;3.60;3.20;;;12.50;31.60;;;;;;10444907;28;20218;-70
2023/05/01 03:36:54;;;;;;;3.60;3.40;;;12.50;31.70;;;;;;10476916;22;20268;-70
2023/05/01 03:41:57;;;;;;;3.67;3.37;;;12.50;31.90;;;;;;10466884;28;20232;-70
2023/05/01 03:47:01;;;;;;;3.50;3.20;;;12.40;31.60;;;;;;10465300;28;20298;-70
2023/05/01 03:52:05;;;;;;;3.30;3.10;;;12.30;31.60;;;;;;10462525;28;20228;-70
2023/05/01 03:57:08;;;;;;;3.40;3.10;;;12.30;32.00;;;;;;10461400;28;20236;-70
2023/05/01 04:02:11;;;;;;;3.23;3.03;;;12.30;32.00;;;;;;10463843;28;20244;-70
2023/05/01 04:07:16;;;;;;;3.30;3.07;;;12.30;32.00;;;;;;10462023;28;20600;-70
2023/05/01 04:12:19;;;;;;;2.87;2.67;;;12.30;32.30;;;;;;10463248;28;20224;-70
2023/05/01 04:17:22;;;;;;;2.80;2.60;;;12.20;32.00;;;;;;10467993;28;20228;-69
2023/05/01 04:22:27;;;;;;;3.37;3.00;;;12.30;32.20;;;;;;10463385;28;20228;-69
2023/05/01 04:27:30;;;;;;;3.40;3.20;;;12.20;32.50;;;;;;10461019;28;20236;-70
2023/05/01 04:32:34;;;;;;;3.53;3.33;;;12.20;32.50;;;;;;10464521;28;20228;-70
2023/05/01 04:37:39;;;;;;;3.47;3.23;;;12.20;32.40;;;;;;10460792;28;20236;-70
2023/05/01 04:42:42;;;;;;;3.77;3.47;;;12.20;32.70;;;;;;10463514;28;20240;-70
2023/05/01 04:47:45;;;;;;;3.80;3.50;;;12.20;32.50;;;;;;10454649;28;20708;-71
2023/05/01 04:52:50;;;;;;;3.30;3.00;;;12.20;32.50;;;;;;10461035;28;20282;-70
2023/05/01 04:57:53;;;;;;;3.47;3.17;;;12.20;32.80;;;;;;10461392;28;20240;-70
2023/05/01 05:02:56;;;;;;;3.67;3.37;;;12.20;32.70;;;;;;10458859;28;20358;-70
2023/05/01 05:08:01;;;;;;;3.93;3.53;;;12.30;33.00;;;;;;10462571;28;20240;-70
2023/05/01 05:13:05;;;;;;;4.60;3.60;;;12.30;33.30;;;;;;10463599;28;20228;-70
2023/05/01 05:18:08;;;;;;;3.43;3.13;;;12.30;33.00;;;;;;10454156;28;20282;-70
2023/05/01 05:23:12;;;;;;;4.10;3.80;;;12.30;33.10;;;;;;10457327;28;20581;-70
2023/05/01 05:28:16;;;;;;;4.57;4.17;;;12.40;33.70;;;;;;10457428;28;20231;-70
2023/05/01 05:33:19;;;;;;;4.10;3.70;;;12.40;33.30;;;;;;10463617;28;20727;-71
2023/05/01 05:38:24;;;;;;;4.50;4.10;;;12.50;33.40;;;;;;10460163;28;20235;-70
2023/05/01 05:43:27;;;;;;;5.60;4.80;;;12.60;34.00;;;;;;10466761;28;20697;-70
2023/05/01 05:48:30;;;;;;;4.67;4.30;;;12.60;33.80;;;;;;10469280;28;20236;-70
2023/05/01 05:53:35;;;;;;;5.67;5.00;;;12.70;34.00;;;;;;10467886;28;20227;-70
2023/05/01 05:58:38;;;;;;;4.87;4.47;;;12.80;34.20;;;;;;10470247;28;20224;-70
2023/05/01 06:03:41;;;;;;;4.77;4.37;;;12.90;33.80;;;;;;10468112;28;20231;-70
2023/05/01 06:08:46;;;;;;;5.47;5.00;;;12.90;33.80;;;;;;10468483;28;20716;-70
2023/05/01 06:13:49;;;;;;;5.10;4.60;;;13.00;34.20;;;;;;10465962;28;20806;-70
2023/05/01 06:18:52;;;;;;;5.17;4.77;;;13.10;34.00;;;;;;10471197;28;20319;-70
2023/05/01 06:23:57;;;;;;;5.00;4.60;;;13.20;34.10;;;;;;10468415;28;20229;-70
2023/05/01 06:29:00;;;;;;;5.60;5.10;;;13.20;34.20;;;;;;10466440;28;20675;-70
2023/05/01 06:34:03;;;;;;;4.80;4.40;;;13.30;34.30;;;;;;10464344;28;20609;-70
2023/05/01 06:39:07;;;;;;;4.67;4.27;;;13.50;34.30;;;;;;10468320;28;20236;-70
2023/05/01 06:44:11;;;;;;;5.27;4.77;;;13.60;34.30;;;;;;10465551;28;20704;-70
2023/05/01 06:49:14;;;;;;;5.23;4.73;;;13.70;34.20;;;;;;10471704;28;20235;-70
2023/05/01 06:54:18;;;;;;;5.20;4.80;;;13.80;33.80;;;;;;10467687;28;20731;-70
2023/05/01 06:59:22;;;;;;;5.13;4.73;;;14.00;33.90;;;;;;10463919;28;20236;-70
2023/05/01 07:04:25;;;;;;;5.07;4.57;;;14.10;33.60;;;;;;10465592;28;20704;-70
2023/05/01 07:09:30;;;;;;;5.00;4.60;;;14.10;33.70;;;;;;10466393;28;20241;-70
2023/05/01 07:14:34;;;;;;;4.93;4.43;;;14.20;33.60;;;;;;10464995;28;20278;-70
2023/05/01 07:19:37;;;;;;;5.00;4.60;;;14.40;33.60;;;;;;10465439;28;20574;-70
2023/05/01 07:24:42;;;;;;;4.87;4.47;;;14.50;33.70;;;;;;10466896;28;20232;-70
2023/05/01 07:29:45;;;;;;;5.53;4.50;;;14.60;33.70;;;;;;10466448;28;21158;-70
2023/05/01 07:34:48;;;;;;;4.73;4.43;;;14.70;33.40;;;;;;10463909;28;20704;-70
2023/05/01 07:39:53;;;;;;;4.77;4.37;;;14.80;33.30;;;;;;10464882;28;20236;-70
2023/05/01 07:44:57;;;;;;;4.40;4.00;;;14.80;33.20;;;;;;10460456;28;20283;-70
2023/05/01 07:50:00;;;;;;;4.90;4.50;;;14.90;33.30;;;;;;10461520;28;20236;-70
2023/05/01 07:55:06;;;;;;;4.47;4.17;;;15.00;33.30;;;;;;10467958;28;20262;-70
2023/05/01 08:00:11;;;;;;;4.50;4.20;;;15.10;33.20;;;;;;10463294;28;20283;-70
2023/05/01 08:05:14;;;;;;;4.07;3.57;;;15.20;33.00;;;;;;10457625;28;20221;-69
2023/05/01 08:10:18;;;;;;;4.50;4.10;;;15.20;33.00;;;;;;10442648;28;20267;-71
2023/05/01 08:15:22;;;;;;;5.13;4.57;;;15.40;33.50;;;;;;10451737;28;20240;-71
2023/05/01 08:20:25;;;;;;;4.67;4.27;;;15.40;33.10;;;;;;10448026;28;20224;-71
2023/05/01 08:25:31;;;;;;;4.97;4.50;;;15.50;33.20;;;;;;10447951;28;20239;-73
2023/05/01 08:30:34;;;;;;;4.50;4.10;;;15.60;32.80;;;;;;10446762;28;20227;-72
2023/05/01 08:35:37;;;;;;;4.70;4.17;;;15.60;32.60;;;;;;10449434;28;20996;-72
2023/05/01 08:40:47;;;;;;;4.80;4.40;;;15.60;32.90;;;;;;10448801;28;20224;-70
2023/05/01 08:45:54;;;;;;;4.83;4.43;;;15.70;32.70;;;;;;10450953;28;20239;-71
2023/05/01 08:51:00;;;;;;;4.37;3.97;;;15.80;32.80;;;;;;10447733;28;20237;-72
2023/05/01 08:56:07;;;;;;;4.93;4.63;;;16.00;33.00;;;;;;10450999;28;20488;-71
2023/05/01 09:01:14;;;;;;;5.03;4.63;;;16.00;33.80;;;;;;10450175;28;20232;-71
2023/05/01 09:06:18;;;;;;;4.90;4.40;;;16.00;33.00;;;;;;10449176;28;20235;-71
2023/05/01 09:11:23;;;;;;;5.13;4.70;;;16.10;33.10;;;;;;10453775;28;20297;-71
2023/05/01 09:16:26;;;;;;;5.00;4.60;;;16.20;33.20;;;;;;10462344;28;20278;-70
2023/05/01 09:21:30;;;;;;;5.93;4.40;;;16.20;33.20;;;;;;10458824;28;20232;-71
2023/05/01 09:26:37;;;;;;;5.33;4.80;;;16.30;33.30;;;;;;10455010;22;20271;-74
2023/05/01 09:31:40;;;;;;;5.17;4.80;;;16.40;33.30;;;;;;10435051;28;20604;-74
2023/05/01 09:36:46;;;;;;;5.47;4.97;;;16.50;33.30;;;;;;10395538;28;20234;-74
2023/05/01 09:41:54;;;;;;;5.53;5.03;;;16.50;33.20;;;;;;10379468;28;20316;-74
2023/05/01 09:46:57;;;;;;;5.23;4.83;;;16.60;33.50;;;;;;10379937;28;20238;-75
2023/05/01 09:52:11;;;;;;;5.60;5.20;;;16.60;33.30;;;;;;10383527;28;20229;-73
2023/05/01 09:57:15;;;;;;;5.27;4.87;;;16.70;32.90;;;;;;10374598;28;20213;-74
2023/05/01 10:02:29;;;;;;;5.60;5.10;;;16.70;32.50;;;;;;10384268;28;20230;-75
2023/05/01 10:07:33;;;;;;;5.53;5.03;;;16.70;32.80;;;;;;10378705;28;20241;-74
2023/05/01 10:12:37;;;;;;;5.37;4.87;;;16.80;33.00;;;;;;10377838;28;20234;-74
2023/05/01 10:17:42;;;;;;;6.00;5.40;;;16.80;33.30;;;;;;10383112;28;20233;-74
2023/05/01 10:22:46;;;;;;;6.10;5.70;;;16.80;33.70;;;;;;10378765;28;20749;-75
2023/05/01 10:27:52;;;;;;;6.07;5.57;;;16.60;33.50;;;;;;10390689;28;20233;-76
2023/05/01 10:32:55;;;;;;;6.30;5.80;;;16.40;33.90;;;;;;10387881;28;20234;-74
2023/05/01 10:38:01;;;;;;;6.70;6.10;;;16.20;33.90;;;;;;10403690;28;20233;-76
2023/05/01 10:43:17;;;;;;;6.77;6.27;;;15.90;34.60;;;;;;10406569;28;20729;-74
2023/05/01 10:48:55;;;;;;;7.13;6.53;;;15.50;35.60;;;;;;10392038;28;20657;-74
2023/05/01 10:54:23;;;;;;;6.37;5.77;;;15.30;36.00;;;;;;10399966;28;20232;-73
2023/05/01 10:59:28;;;;;;;6.47;5.87;;;15.10;36.30;;;;;;10392103;28;20753;-74
2023/05/01 11:04:49;;;;;;;7.43;6.53;;;15.00;36.50;;;;;;10389324;28;20226;-74
2023/05/01 11:09:57;;;;;;;10.63;9.73;;;15.00;37.30;;;;;;10385537;28;20257;-74
2023/05/01 11:15:07;;;;;;;7.27;6.67;;;14.90;36.30;;;;;;10384937;28;20242;-74
2023/05/01 11:20:11;;;;;;;7.73;7.03;;;14.80;37.60;;;;;;10382483;28;20226;-74
2023/05/01 11:25:19;;;;;;;7.53;6.77;;;14.70;36.70;;;;;;10390377;28;20336;-74
2023/05/01 11:30:24;;;;;;;16.50;15.00;;;14.60;37.50;;;;;;10388518;28;20459;-74
2023/05/01 11:35:29;;;;;;;7.50;6.80;;;14.60;37.30;;;;;;10391377;28;20253;-74
2023/05/01 11:40:33;;;;;;;7.17;6.47;;;14.50;37.20;;;;;;10385434;28;20694;-74
2023/05/01 11:45:38;;;;;;;7.60;6.97;;;14.50;37.30;;;;;;10384721;28;20229;-74
2023/05/01 11:50:41;;;;;;;7.40;6.80;;;14.50;37.80;;;;;;10385130;28;20230;-74
2023/05/01 11:55:46;;;;;;;6.37;5.77;;;14.50;37.90;;;;;;10388261;28;20222;-74
2023/05/01 12:00:50;;;;;;;6.73;6.23;;;14.60;38.30;;;;;;10384297;28;20222;-74
2023/05/01 12:05:54;;;;;;;6.87;6.23;;;14.60;38.70;;;;;;10386572;28;20237;-74
2023/05/01 12:10:58;;;;;;;7.80;7.20;;;14.70;38.00;;;;;;10388188;28;20257;-74
2023/05/01 12:16:04;;;;;;;7.13;6.60;;;14.70;38.00;;;;;;10387164;28;20249;-74
2023/05/01 12:21:16;;;;;;;7.83;7.23;;;14.80;38.70;;;;;;10381955;28;20237;-74
2023/05/01 12:26:22;;;;;;;7.33;6.73;;;14.90;40.20;;;;;;10385666;28;20713;-74
2023/05/01 12:31:28;;;;;;;6.93;6.33;;;15.00;38.30;;;;;;10381699;28;20233;-74
2023/05/01 12:36:33;;;;;;;7.33;6.73;;;15.00;38.70;;;;;;10389079;28;20234;-74
2023/05/01 12:41:39;;;;;;;6.87;6.27;;;15.10;38.70;;;;;;10380701;28;20729;-76
2023/05/01 12:46:44;;;;;;;7.03;6.43;;;15.10;38.70;;;;;;10393373;28;20743;-75
2023/05/01 12:51:48;;;;;;;5.90;5.40;;;15.20;38.80;;;;;;10402270;28;20228;-75
2023/05/01 12:56:53;;;;;;;6.03;5.53;;;15.20;38.50;;;;;;10396867;28;20236;-74
2023/05/01 13:02:02;;;;;;;7.00;6.50;;;15.30;38.50;;;;;;10402978;28;20256;-74
2023/05/01 13:07:11;;;;;;;7.40;6.80;;;15.40;39.50;;;;;;10404014;28;20237;-74
2023/05/01 13:12:15;;;;;;;7.00;6.50;;;15.40;39.40;;;;;;10415804;28;20316;-73
2023/05/01 13:17:25;;;;;;;7.63;7.03;;;15.40;38.10;;;;;;10398281;28;20253;-72
2023/05/01 13:22:31;;;;;;;6.93;6.33;;;15.50;39.80;;;;;;10392430;28;20233;-74
2023/05/01 13:27:35;;;;;;;6.87;6.27;;;15.50;38.80;;;;;;10403461;28;20237;-74
2023/05/01 13:32:41;;;;;;;7.50;6.90;;;15.60;38.50;;;;;;10409527;28;20221;-74
2023/05/01 13:37:44;;;;;;;7.67;6.97;;;15.60;39.40;;;;;;10445485;28;20274;-73
2023/05/01 13:42:53;;;;;;;7.33;6.83;;;15.60;38.70;;;;;;10400523;28;20232;-73
2023/05/01 13:47:57;;;;;;;7.33;6.83;;;15.60;38.50;;;;;;10374818;28;20240;-74
2023/05/01 13:53:00;;;;;;;8.30;7.60;;;15.60;38.60;;;;;;10375672;28;20229;-74
2023/05/01 13:58:04;;;;;;;7.53;6.93;;;15.60;38.70;;;;;;10377642;28;20238;-74
2023/05/01 14:03:11;;;;;;;7.20;6.60;;;15.60;38.80;;;;;;10391892;28;20240;-74
2023/05/01 14:08:15;;;;;;;7.33;6.80;;;15.60;39.60;;;;;;10407534;28;20268;-73
2023/05/01 14:13:18;;;;;;;7.30;6.80;;;15.70;38.70;;;;;;10413166;28;20589;-73
2023/05/01 14:18:23;;;;;;;7.60;7.00;;;15.70;38.30;;;;;;10400897;28;20237;-74
2023/05/01 14:23:26;;;;;;;7.87;7.27;;;15.70;39.00;;;;;;10412802;28;20594;-74
2023/05/01 14:28:30;;;;;;;7.13;6.63;;;15.70;38.70;;;;;;10409109;28;20284;-74
2023/05/01 14:33:41;;;;;;;7.83;7.33;;;15.70;38.90;;;;;;10409615;28;20232;-74
2023/05/01 14:38:48;;;;;;;7.77;7.17;;;15.70;40.10;;;;;;10403050;28;20222;-75
2023/05/01 14:43:52;;;;;;;6.73;6.23;;;15.80;39.00;;;;;;10408320;28;20272;-73
2023/05/01 14:48:57;;;;;;;8.43;7.77;;;15.80;38.90;;;;;;10402885;28;20317;-73
2023/05/01 14:54:01;;;;;;;9.63;8.83;;;15.80;39.30;;;;;;10390600;28;20590;-73
2023/05/01 14:59:04;;;;;;;8.77;8.00;;;15.80;39.00;;;;;;10383566;28;20300;-73
2023/05/01 15:04:11;;;;;;;8.10;7.40;;;15.90;39.10;;;;;;10381030;28;20237;-73
2023/05/01 15:09:14;;;;;;;8.53;7.73;;;15.90;39.40;;;;;;10386544;28;20651;-74
2023/05/01 15:14:18;;;;;;;9.00;8.30;;;15.90;39.10;;;;;;10384718;28;20862;-74
2023/05/01 15:19:22;;;;;;;7.80;7.20;;;16.00;39.30;;;;;;10385016;28;20745;-74
2023/05/01 15:24:26;;;;;;;7.93;7.30;;;16.00;39.50;;;;;;10386009;28;20218;-74
2023/05/01 15:29:29;;;;;;;7.20;6.67;;;16.00;39.20;;;;;;10381119;28;20233;-74
2023/05/01 15:34:33;;;;;;;8.87;8.07;;;16.10;39.30;;;;;;10380765;28;20233;-74
2023/05/01 15:39:37;;;;;;;7.97;7.27;;;16.10;39.60;;;;;;10375098;28;20240;-74
2023/05/01 15:44:40;;;;;;;9.77;8.77;;;16.10;39.00;;;;;;10381944;28;20718;-74
2023/05/01 15:49:45;;;;;;;8.47;7.80;;;16.10;39.30;;;;;;10389467;28;20229;-74
2023/05/01 15:54:48;;;;;;;18.53;9.57;;;16.10;39.70;;;;;;10386419;28;20233;-73
2023/05/01 15:59:54;;;;;;;8.27;7.60;;;16.20;39.70;;;;;;10379864;28;20235;-75
2023/05/01 16:04:59;;;;;;;8.07;7.37;;;16.30;39.40;;;;;;10385817;28;20237;-75
2023/05/01 16:10:03;;;;;;;9.07;8.27;;;16.30;39.60;;;;;;10387449;28;20237;-75
2023/05/01 16:15:08;;;;;;;8.93;8.23;;;16.40;39.30;;;;;;10373601;28;20631;-74
2023/05/01 16:20:15;;;;;;;9.10;8.40;;;16.40;39.50;;;;;;10380983;28;20226;-74
2023/05/01 16:25:19;;;;;;;8.50;7.80;;;16.40;40.10;;;;;;10382125;28;20313;-74
2023/05/01 16:30:26;;;;;;;8.73;8.03;;;16.40;39.50;;;;;;10378529;28;20368;-74
2023/05/01 16:35:31;;;;;;;8.53;7.87;;;16.40;39.50;;;;;;10383825;28;20886;-75
2023/05/01 16:40:35;;;;;;;8.03;7.43;;;16.30;39.60;;;;;;10396447;28;20229;-75
2023/05/01 16:45:39;;;;;;;8.20;7.50;;;16.30;39.50;;;;;;10403207;28;20235;-75
2023/05/01 16:50:43;;;;;;;8.70;8.00;;;16.30;39.70;;;;;;10380622;28;20635;-76
2023/05/01 16:55:47;;;;;;;8.63;7.93;;;16.30;40.00;;;;;;10381339;28;20326;-76
2023/05/01 17:00:50;;;;;;;9.03;8.33;;;16.30;39.70;;;;;;10381256;28;20609;-76
2023/05/01 17:05:57;;;;;;;9.90;9.00;;;16.30;39.60;;;;;;10379708;28;20567;-76
2023/05/01 17:11:00;;;;;;;9.63;8.83;;;16.30;39.90;;;;;;10385826;28;20303;-76
2023/05/01 17:16:04;;;;;;;9.67;8.90;;;16.30;39.80;;;;;;10383548;28;20697;-76
2023/05/01 17:21:08;;;;;;;9.30;8.60;;;16.30;39.90;;;;;;10378414;28;20233;-76
2023/05/01 17:26:14;;;;;;;8.87;8.17;;;16.30;40.40;;;;;;10392005;28;20295;-76
2023/05/01 17:31:17;;;;;;;8.97;8.20;;;16.30;40.00;;;;;;10381300;28;20244;-76
2023/05/01 17:36:25;;;;;;;9.27;8.57;;;16.30;40.00;;;;;;10388729;28;20233;-76
2023/05/01 17:41:29;;;;;;;9.13;8.43;;;16.30;40.40;;;;;;10388265;28;20237;-76
2023/05/01 17:46:32;;;;;;;9.90;9.10;;;16.30;40.00;;;;;;10383707;28;20233;-76
2023/05/01 17:51:37;;;;;;;9.37;8.57;;;16.30;40.10;;;;;;10385392;28;20236;-76
2023/05/01 17:56:40;;;;;;;9.27;8.47;;;16.20;40.30;;;;;;10384092;28;20218;-75
2023/05/01 18:01:43;;;;;;;8.67;7.97;;;16.20;40.10;;;;;;10380823;28;20233;-76
2023/05/01 18:06:48;;;;;;;9.40;8.60;;;16.20;40.20;;;;;;10389095;28;20669;-76
2023/05/01 18:11:51;;;;;;;9.33;8.53;;;16.20;40.50;;;;;;10383989;28;20234;-76
2023/05/01 18:16:54;;;;;;;9.87;9.00;;;16.20;40.20;;;;;;10394629;28;20280;-76
2023/05/01 18:21:59;;;;;;;9.33;8.53;;;16.10;40.30;;;;;;10396022;28;20309;-76
2023/05/01 18:27:02;;;;;;;9.60;8.80;;;16.10;40.80;;;;;;10383183;28;20234;-75
2023/05/01 18:32:05;;;;;;;10.33;9.43;;;16.00;40.30;;;;;;10393347;28;20240;-76
2023/05/01 18:37:10;;;;;;;10.20;9.40;;;16.00;40.50;;;;;;10388545;28;20244;-76
2023/05/01 18:42:13;;;;;;;10.07;9.27;;;16.00;40.90;;;;;;10390468;28;20239;-76
2023/05/01 18:47:16;;;;;;;10.03;9.17;;;16.00;40.60;;;;;;10393294;28;20228;-76
2023/05/01 18:52:21;;;;;;;10.07;9.17;;;16.00;40.70;;;;;;10400113;28;20674;-77
2023/05/01 18:57:24;;;;;;;9.97;9.17;;;15.90;41.10;;;;;;10389757;28;20236;-76
2023/05/01 19:02:27;;;;;;;10.27;9.37;;;16.00;40.80;;;;;;10398699;28;20218;-77
2023/05/01 19:07:32;;;;;;;9.80;9.00;;;15.90;40.80;;;;;;10394551;28;20256;-77
2023/05/01 19:12:35;;;;;;;10.20;9.40;;;15.90;41.30;;;;;;10396196;28;20653;-77
2023/05/01 19:17:39;;;;;;;10.10;9.20;;;15.90;41.00;;;;;;10400990;28;20303;-76
2023/05/01 19:22:43;;;;;;;9.83;9.03;;;15.80;41.00;;;;;;10392087;28;20619;-77
2023/05/01 19:27:47;;;;;;;9.83;9.03;;;15.80;41.60;;;;;;10387670;28;20738;-76
2023/05/01 19:32:51;;;;;;;10.03;9.23;;;15.80;41.30;;;;;;10395479;28;20308;-76
2023/05/01 19:37:56;;;;;;;10.80;9.90;;;15.70;41.30;;;;;;10397380;28;20234;-77
2023/05/01 19:42:59;;;;;;;9.77;8.73;;;15.70;41.90;;;;;;10402400;28;20221;-76
2023/05/01 19:48:02;;;;;;;9.07;8.37;;;15.70;41.50;;;;;;10390324;28;20317;-77
2023/05/01 19:53:07;;;;;;;9.00;8.30;;;15.70;41.50;;;;;;10391698;28;20229;-78
2023/05/01 19:58:10;;;;;;;8.57;7.87;;;15.70;42.10;;;;;;10392159;28;20236;-77
2023/05/01 20:03:14;;;;;;;8.63;7.90;;;15.60;41.60;;;;;;10393539;28;20232;-76
2023/05/01 20:08:19;;;;;;;8.67;7.87;;;15.70;41.80;;;;;;10388863;28;20603;-77
2023/05/01 20:13:22;;;;;;;7.87;7.27;;;15.70;42.30;;;;;;10398401;28;20237;-76
2023/05/01 20:18:26;;;;;;;7.63;7.03;;;15.60;41.80;;;;;;10389290;28;20717;-76
2023/05/01 20:23:30;;;;;;;7.33;6.67;;;15.60;41.90;;;;;;10390328;28;20230;-77
2023/05/01 20:28:34;;;;;;;6.13;5.73;;;15.60;42.40;;;;;;10395797;28;20230;-77
2023/05/01 20:33:37;;;;;;;5.30;4.90;;;15.60;42.10;;;;;;10390572;28;20245;-76
2023/05/01 20:38:44;;;;;;;5.73;5.33;;;15.60;42.20;;;;;;10387199;28;20252;-77
2023/05/01 20:43:47;;;;;;;5.87;5.37;;;15.60;43.00;;;;;;10397664;28;20229;-77
2023/05/01 20:48:50;;;;;;;4.90;4.50;;;15.60;42.30;;;;;;10393872;28;20225;-76
2023/05/01 20:53:55;;;;;;;4.73;4.43;;;15.70;42.20;;;;;;10382224;28;20894;-77
2023/05/01 20:58:59;;;;;;;4.20;3.90;;;15.60;42.50;;;;;;10386258;28;20235;-77
2023/05/01 21:04:04;;;;;;;4.40;4.10;;;15.80;42.20;;;;;;10386617;28;20767;-77
2023/05/01 21:09:13;;;;;;;4.03;3.63;;;15.80;42.40;;;;;;10376947;28;20269;-76
2023/05/01 21:14:16;;;;;;;4.43;4.13;;;15.80;42.40;;;;;;10389563;28;20230;-76
2023/05/01 21:19:20;;;;;;;4.50;4.20;;;15.80;42.00;;;;;;10379653;28;20222;-76
2023/05/01 21:24:25;;;;;;;3.83;3.53;;;15.80;41.90;;;;;;10386903;28;20237;-76
2023/05/01 21:29:29;;;;;;;4.60;4.30;;;15.90;42.40;;;;;;10382730;28;20241;-77
2023/05/01 21:34:32;;;;;;;4.40;4.10;;;15.80;41.80;;;;;;10395455;28;20244;-77
2023/05/01 21:39:37;;;;;;;4.03;3.73;;;15.90;41.80;;;;;;10390704;28;20221;-76
2023/05/01 21:44:40;;;;;;;5.10;3.97;;;15.80;42.10;;;;;;10390800;28;20234;-77
2023/05/01 21:49:43;;;;;;;4.13;3.83;;;15.80;42.40;;;;;;10391524;28;20595;-76
2023/05/01 21:54:48;;;;;;;4.50;4.20;;;15.80;41.70;;;;;;10391178;28;20230;-76
2023/05/01 21:59:55;;;;;;;4.37;4.07;;;15.70;42.00;;;;;;10387916;28;20229;-77
2023/05/01 22:04:59;;;;;;;3.60;3.40;;;15.60;41.70;;;;;;10389742;28;20801;-77
2023/05/01 22:10:04;;;;;;;4.10;3.80;;;15.50;41.60;;;;;;10385968;28;20321;-76
2023/05/01 22:15:08;;;;;;;4.30;4.00;;;15.50;42.10;;;;;;10388336;28;20242;-77
2023/05/01 22:20:12;;;;;;;4.70;4.40;;;15.50;42.00;;;;;;10388944;28;20256;-77
2023/05/01 22:25:16;;;;;;;4.97;4.57;;;15.40;41.80;;;;;;10395923;28;20234;-76
2023/05/01 22:30:20;;;;;;;4.90;4.50;;;15.40;42.20;;;;;;10398954;28;20776;-76
2023/05/01 22:35:23;;;;;;;4.77;4.37;;;15.30;41.90;;;;;;10398949;28;20241;-77
2023/05/01 22:40:27;;;;;;;5.30;4.87;;;15.30;42.00;;;;;;10402673;28;20253;-77
2023/05/01 22:45:31;;;;;;;5.50;5.10;;;15.20;42.30;;;;;;10407078;28;20230;-76
2023/05/01 22:50:34;;;;;;;5.77;5.37;;;15.20;42.00;;;;;;10399285;28;20229;-76
2023/05/01 22:55:38;;;;;;;6.53;5.90;;;15.10;42.00;;;;;;10391097;28;20273;-76
2023/05/01 23:00:42;;;;;;;6.53;6.00;;;15.10;42.60;;;;;;10399678;28;20225;-77
2023/05/01 23:05:45;;;;;;;5.97;5.57;;;15.10;42.30;;;;;;10397085;28;20242;-76
2023/05/01 23:10:49;;;;;;;5.37;4.90;;;14.80;42.10;;;;;;10398384;28;20229;-77
2023/05/01 23:15:53;;;;;;;5.73;5.23;;;14.90;42.50;;;;;;10398037;28;20272;-77
2023/05/01 23:20:57;;;;;;;6.20;5.70;;;14.90;42.40;;;;;;10400685;28;20229;-76
2023/05/01 23:26:01;;;;;;;5.40;5.00;;;14.90;42.30;;;;;;10391581;28;20234;-76
2023/05/01 23:31:05;;;;;;;6.10;5.60;;;14.90;42.70;;;;;;10398411;28;20226;-77
2023/05/01 23:36:09;;;;;;;5.80;5.40;;;14.90;42.40;;;;;;10396195;28;20281;-76
2023/05/01 23:41:14;;;;;;;5.50;5.10;;;14.90;42.40;;;;;;10406245;28;20249;-77
2023/05/01 23:46:17;;;;;;;5.40;5.00;;;14.90;42.60;;;;;;10402570;28;20221;-77
2023/05/01 23:51:21;;;;;;;5.80;5.37;;;14.80;42.10;;;;;;10399073;28;20312;-76
2023/05/01 23:56:25;;;;;;;5.30;4.90;;;14.80;42.10;;;;;;10399429;28;20232;-77
